createdAt,value
2022-08-29T00:01:55.364Z,2.10
2022-08-29T00:05:57.300Z,1.80
2022-08-29T00:09:59.119Z,1.80
2022-08-29T00:14:01.029Z,1.83
2022-08-29T00:18:04.313Z,1.80
2022-08-29T00:22:06.930Z,1.83
2022-08-29T00:26:08.444Z,1.80
2022-08-29T00:30:11.446Z,2.03
2022-08-29T00:34:14.494Z,2.10
2022-08-29T00:38:18.289Z,1.83
2022-08-29T00:42:20.899Z,1.73
2022-08-29T00:46:45.151Z,1.90
2022-08-29T00:50:52.269Z,1.80
2022-08-29T00:54:56.188Z,2.00
2022-08-29T00:59:02.292Z,1.83
2022-08-29T01:03:04.384Z,1.90
2022-08-29T01:07:08.990Z,1.70
2022-08-29T01:11:13.523Z,1.90
2022-08-29T01:15:15.071Z,1.93
2022-08-29T01:19:24.346Z,2.03
2022-08-29T01:23:35.544Z,2.00
2022-08-29T01:27:42.018Z,2.00
2022-08-29T01:31:56.770Z,1.70
2022-08-29T01:35:59.631Z,1.90
2022-08-29T01:40:01.882Z,1.60
2022-08-29T01:44:12.090Z,2.07
2022-08-29T01:48:13.935Z,1.60
2022-08-29T01:52:15.886Z,1.70
2022-08-29T01:56:20.575Z,1.70
2022-08-29T02:00:23.595Z,1.80
2022-08-29T02:04:25.498Z,1.70
2022-08-29T02:08:27.383Z,1.83
2022-08-29T02:12:29.175Z,1.90
2022-08-29T02:16:32.299Z,1.90
2022-08-29T02:20:34.088Z,1.87
2022-08-29T02:24:35.630Z,1.73
2022-08-29T02:28:37.515Z,1.70
2022-08-29T02:32:40.455Z,2.00
2022-08-29T02:36:42.989Z,2.10
2022-08-29T02:40:47.700Z,1.80
2022-08-29T02:44:49.310Z,1.80
2022-08-29T02:49:01.086Z,1.80
2022-08-29T02:53:03.134Z,1.97
2022-08-29T02:57:06.257Z,2.10
2022-08-29T03:01:08.159Z,1.90
2022-08-29T03:05:11.335Z,1.90
2022-08-29T03:09:12.959Z,2.03
2022-08-29T03:13:14.534Z,1.60
2022-08-29T03:17:16.099Z,1.80
2022-08-29T03:21:22.234Z,1.87
2022-08-29T03:25:25.147Z,2.10
2022-08-29T03:29:26.686Z,2.20
2022-08-29T03:33:28.226Z,1.83
2022-08-29T03:37:31.110Z,1.77
2022-08-29T03:41:32.774Z,2.07
2022-08-29T03:45:34.446Z,1.97
2022-08-29T03:49:37.918Z,1.80
2022-08-29T03:53:41.306Z,2.20
2022-08-29T03:57:43.082Z,2.30
2022-08-29T04:01:44.861Z,1.87
2022-08-29T04:05:47.842Z,2.00
2022-08-29T04:09:54.015Z,2.27
2022-08-29T04:13:55.579Z,1.90
2022-08-29T04:17:59.451Z,2.10
2022-08-29T04:22:01.163Z,1.73
2022-08-29T04:26:27.098Z,1.97
2022-08-29T04:30:26.502Z,1.87
2022-08-29T04:34:28.082Z,1.80
2022-08-29T04:38:29.755Z,1.73
2022-08-29T04:42:34.998Z,1.90
2022-08-29T04:46:36.730Z,1.67
2022-08-29T04:50:38.409Z,1.90
2022-08-29T04:54:40.102Z,1.90
2022-08-29T04:58:44.610Z,2.20
2022-08-29T05:02:46.471Z,2.10
2022-08-29T05:06:48.134Z,2.40
2022-08-29T05:10:50.353Z,2.17
2022-08-29T05:14:53.694Z,2.30
2022-08-29T05:18:55.241Z,2.00
2022-08-29T05:22:57.142Z,2.20
2022-08-29T05:26:58.762Z,2.43
2022-08-29T05:31:01.771Z,2.40
2022-08-29T05:35:03.731Z,2.10
2022-08-29T05:39:05.233Z,2.30
2022-08-29T05:43:07.837Z,1.90
2022-08-29T05:47:13.122Z,2.20
2022-08-29T05:51:16.197Z,2.03
2022-08-29T05:55:17.810Z,2.37
2022-08-29T05:59:19.610Z,2.63
2022-08-29T06:03:22.517Z,2.30
2022-08-29T06:07:24.058Z,2.00
2022-08-29T06:11:27.744Z,2.97
2022-08-29T06:15:29.468Z,2.50
2022-08-29T06:19:32.967Z,2.40
2022-08-29T06:23:34.901Z,2.40
2022-08-29T06:27:36.368Z,2.30
2022-08-29T06:31:38.782Z,2.07
2022-08-29T06:35:41.746Z,2.30
2022-08-29T06:39:43.549Z,2.40
2022-08-29T06:43:45.299Z,2.37
2022-08-29T06:47:47.275Z,2.00
2022-08-29T06:51:54.247Z,1.97
2022-08-29T06:56:04.043Z,2.40
2022-08-29T07:00:12.460Z,2.60
2022-08-29T07:04:26.497Z,2.50
2022-08-29T07:08:30.249Z,2.60
2022-08-29T07:12:31.974Z,2.53
2022-08-29T07:16:35.174Z,2.53
2022-08-29T07:20:37.655Z,2.43
2022-08-29T07:24:40.554Z,2.60
2022-08-29T07:28:46.066Z,2.70
2022-08-29T07:32:49.107Z,2.70
2022-08-29T07:36:50.773Z,2.50
2022-08-29T07:40:59.030Z,2.80
2022-08-29T07:45:01.223Z,2.20
2022-08-29T07:49:03.552Z,2.37
2022-08-29T07:53:05.250Z,2.43
2022-08-29T07:57:08.111Z,2.40
2022-08-29T08:01:12.568Z,2.27
2022-08-29T08:05:24.098Z,2.70
2022-08-29T08:09:25.816Z,2.50
2022-08-29T08:13:28.884Z,2.20
2022-08-29T08:17:30.666Z,2.80
2022-08-29T08:21:32.638Z,2.40
2022-08-29T08:25:34.366Z,2.33
2022-08-29T08:29:37.279Z,2.30
2022-08-29T08:33:40.448Z,2.30
2022-08-29T08:37:42.967Z,2.07
2022-08-29T08:41:54.791Z,2.10
2022-08-29T08:45:58.988Z,1.93
2022-08-29T08:50:05.101Z,2.20
2022-08-29T08:54:15.047Z,2.20
2022-08-29T08:58:31.694Z,2.30
2022-08-29T09:02:42.189Z,2.00
2022-08-29T09:06:54.675Z,2.10
2022-08-29T09:11:03.105Z,2.57
2022-08-29T09:15:13.490Z,2.43
2022-08-29T09:19:18.005Z,2.30
2022-08-29T09:23:26.931Z,2.37
2022-08-29T09:27:35.676Z,2.13
2022-08-29T09:31:37.284Z,2.60
2022-08-29T09:35:42.621Z,2.30
2022-08-29T09:39:54.177Z,2.00
2022-08-29T09:43:56.121Z,1.80
2022-08-29T09:48:09.357Z,1.83
2022-08-29T09:52:14.663Z,2.20
2022-08-29T09:56:20.843Z,1.97
2022-08-29T10:00:28.816Z,2.13
2022-08-29T10:04:38.669Z,1.70
2022-08-29T10:08:43.531Z,2.10
2022-08-29T10:12:51.626Z,1.93
2022-08-29T10:16:59.880Z,2.07
2022-08-29T10:21:15.111Z,1.80
2022-08-29T10:25:24.108Z,1.80
2022-08-29T10:29:40.001Z,1.90
2022-08-29T10:34:06.632Z,2.03
2022-08-29T10:38:18.221Z,1.80
2022-08-29T10:42:25.171Z,1.60
2022-08-29T10:46:43.001Z,2.17
2022-08-29T10:50:51.633Z,2.07
2022-08-29T10:55:03.111Z,1.90
2022-08-29T10:59:12.153Z,1.80
2022-08-29T11:03:23.461Z,2.00
2022-08-29T11:07:30.581Z,1.97
2022-08-29T11:11:35.918Z,2.00
2022-08-29T11:15:43.603Z,1.90
2022-08-29T11:19:57.267Z,1.97
2022-08-29T11:23:58.935Z,2.03
2022-08-29T11:28:08.898Z,1.85
2022-08-29T11:32:19.878Z,1.90
2022-08-29T11:36:42.478Z,1.80
2022-08-29T11:41:29.468Z,2.10
2022-08-29T11:45:37.502Z,1.80
2022-08-29T11:49:46.829Z,1.90
2022-08-29T11:53:48.820Z,2.00
2022-08-29T11:57:53.324Z,1.95
2022-08-29T12:01:58.815Z,2.25
2022-08-29T12:06:05.362Z,2.10
2022-08-29T12:10:12.344Z,2.10
2022-08-29T12:14:33.160Z,2.47
2022-08-29T12:18:45.582Z,1.98
2022-08-29T12:22:54.946Z,2.00
2022-08-29T12:26:57.239Z,2.20
2022-08-29T12:31:35.282Z,2.72
2022-08-29T12:36:04.179Z,2.25
2022-08-29T12:40:30.916Z,2.83
2022-08-29T12:44:35.745Z,2.33
2022-08-29T12:48:42.201Z,2.20
2022-08-29T12:52:57.098Z,2.55
2022-08-29T12:57:00.608Z,2.30
2022-08-29T13:01:03.642Z,2.13
2022-08-29T13:05:18.749Z,2.53
2022-08-29T13:09:29.842Z,2.20
2022-08-29T13:13:33.745Z,2.45
2022-08-29T13:17:37.407Z,2.50
2022-08-29T13:21:39.093Z,2.42
2022-08-29T13:25:46.155Z,2.45
2022-08-29T13:29:49.108Z,2.47
2022-08-29T13:34:10.201Z,2.63
2022-08-29T13:38:19.278Z,2.55
2022-08-29T13:42:25.763Z,2.33
2022-08-29T13:46:30.562Z,2.38
2022-08-29T13:50:32.308Z,2.42
2022-08-29T13:54:34.979Z,2.40
2022-08-29T13:58:37.265Z,2.63
2022-08-29T14:02:44.930Z,2.35
2022-08-29T14:06:47.308Z,2.53
2022-08-29T14:10:49.074Z,2.30
2022-08-29T14:14:50.940Z,2.35
2022-08-29T14:18:54.961Z,2.67
2022-08-29T14:22:56.447Z,2.42
2022-08-29T14:27:01.134Z,2.45
2022-08-29T14:31:03.815Z,2.70
2022-08-29T14:35:08.122Z,2.70
2022-08-29T14:39:11.018Z,2.47
2022-08-29T14:43:12.960Z,2.42
2022-08-29T14:47:14.678Z,2.47
2022-08-29T14:51:17.552Z,2.63
2022-08-29T14:55:20.134Z,2.97
2022-08-29T14:59:22.899Z,2.55
2022-08-29T15:03:24.512Z,2.13
2022-08-29T15:07:27.408Z,2.33
2022-08-29T15:11:28.999Z,2.67
2022-08-29T15:15:31.147Z,2.55
2022-08-29T15:23:55.871Z,2.50
2022-08-29T15:27:57.423Z,2.28
2022-08-29T15:31:59.021Z,2.38
2022-08-29T15:36:01.017Z,2.30
2022-08-29T15:40:07.672Z,2.10
2022-08-29T15:44:13.032Z,2.47
2022-08-29T15:48:14.686Z,2.55
2022-08-29T15:52:16.224Z,3.10
2022-08-29T15:56:19.060Z,2.40
2022-08-29T16:00:29.724Z,2.20
2022-08-29T16:04:32.482Z,1.83
2022-08-29T16:08:33.970Z,2.10
2022-08-29T16:12:36.830Z,2.40
2022-08-29T16:16:38.402Z,2.37
2022-08-29T16:24:59.371Z,2.33
2022-08-29T16:29:04.777Z,2.60
2022-08-29T16:33:06.256Z,2.27
2022-08-29T16:37:08.221Z,2.20
2022-08-29T16:41:12.666Z,2.50
2022-08-29T16:45:15.682Z,2.27
2022-08-29T16:49:18.197Z,2.53
2022-08-29T16:53:19.894Z,2.30
2022-08-29T16:57:21.785Z,2.17
2022-08-29T17:01:25.403Z,2.33
2022-08-29T17:05:27.193Z,2.30
2022-08-29T17:09:29.205Z,2.10
2022-08-29T17:13:31.644Z,2.43
2022-08-29T17:17:35.425Z,2.30
2022-08-29T17:21:37.586Z,2.40
2022-08-29T17:25:42.113Z,2.00
2022-08-29T17:29:43.593Z,2.07
2022-08-29T17:33:46.789Z,2.10
2022-08-29T17:37:48.261Z,2.30
2022-08-29T17:41:50.077Z,2.20
2022-08-29T17:45:54.976Z,2.23
2022-08-29T17:49:58.257Z,2.27
2022-08-29T17:53:59.777Z,1.90
2022-08-29T17:58:01.334Z,2.33
2022-08-29T18:02:03.603Z,2.63
2022-08-29T18:06:09.788Z,2.33
2022-08-29T18:10:14.000Z,2.20
2022-08-29T18:14:17.092Z,2.30
2022-08-29T18:18:18.737Z,2.40
2022-08-29T18:22:21.584Z,2.30
2022-08-29T18:26:23.530Z,2.00
2022-08-29T18:30:25.317Z,2.37
2022-08-29T18:34:26.918Z,2.30
2022-08-29T18:38:29.743Z,2.10
2022-08-29T18:42:40.493Z,2.70
2022-08-29T18:46:42.888Z,2.90
2022-08-29T18:50:50.214Z,2.77
2022-08-29T18:54:53.354Z,2.50
2022-08-29T18:58:58.782Z,2.50
2022-08-29T19:03:01.827Z,2.47
2022-08-29T19:07:04.316Z,2.57
2022-08-29T19:11:08.718Z,2.50
2022-08-29T19:15:11.260Z,2.67
2022-08-29T19:19:13.569Z,2.60
2022-08-29T19:23:15.536Z,2.47
2022-08-29T19:27:41.684Z,2.97
2022-08-29T19:31:40.147Z,2.40
2022-08-29T19:35:41.859Z,2.50
2022-08-29T19:39:43.470Z,2.40
2022-08-29T19:43:46.450Z,2.80
2022-08-29T19:47:48.158Z,2.67
2022-08-29T19:51:50.401Z,2.67
2022-08-29T19:55:52.461Z,2.33
2022-08-29T19:59:55.293Z,2.83
2022-08-29T20:03:56.823Z,2.47
2022-08-29T20:07:59.852Z,2.97
2022-08-29T20:12:02.657Z,3.23
2022-08-29T20:16:10.569Z,2.80
2022-08-29T20:20:16.786Z,3.03
2022-08-29T20:24:18.333Z,2.53
2022-08-29T20:28:19.878Z,2.80
2022-08-29T20:32:22.762Z,3.03
2022-08-29T20:36:24.734Z,2.50
2022-08-29T20:40:27.270Z,3.00
2022-08-29T20:44:33.970Z,3.00
2022-08-29T20:48:37.670Z,3.13
2022-08-29T20:52:39.195Z,2.70
2022-08-29T20:56:40.833Z,3.00
2022-08-29T21:00:42.435Z,3.00
2022-08-29T21:04:45.481Z,2.73
2022-08-29T21:08:47.296Z,2.90
2022-08-29T21:12:48.769Z,2.90
2022-08-29T21:16:50.535Z,2.70
2022-08-29T21:20:54.222Z,2.63
2022-08-29T21:24:56.010Z,2.73
2022-08-29T21:28:57.534Z,2.60
2022-08-29T21:32:59.297Z,2.73
2022-08-29T21:37:02.341Z,2.77
2022-08-29T21:41:03.894Z,2.47
2022-08-29T21:45:06.391Z,3.00
2022-08-29T21:49:08.433Z,2.87
2022-08-29T21:53:12.153Z,2.90
2022-08-29T21:57:13.894Z,2.63
2022-08-29T22:01:15.654Z,2.93
2022-08-29T22:05:18.085Z,2.90
2022-08-29T22:09:21.727Z,2.60
2022-08-29T22:13:23.321Z,2.47
2022-08-29T22:17:24.894Z,2.53
2022-08-29T22:21:28.557Z,3.07
2022-08-29T22:25:32.088Z,2.77
2022-08-29T22:29:33.765Z,3.03
2022-08-29T22:33:35.286Z,2.83
2022-08-29T22:37:36.836Z,2.70
2022-08-29T22:41:45.448Z,2.60
2022-08-29T22:45:48.894Z,2.70
2022-08-29T22:49:52.152Z,2.67
2022-08-29T22:53:53.957Z,2.63
2022-08-29T22:57:57.149Z,2.53
2022-08-29T23:01:59.081Z,3.67
2022-08-29T23:06:00.845Z,2.57
2022-08-29T23:10:04.333Z,2.60
2022-08-29T23:14:08.026Z,2.60
2022-08-29T23:18:14.192Z,2.60
2022-08-29T23:22:15.880Z,2.30
2022-08-29T23:26:17.913Z,2.50
2022-08-29T23:30:20.752Z,2.57
2022-08-29T23:34:23.340Z,2.40
2022-08-29T23:38:25.168Z,2.60
2022-08-29T23:42:26.952Z,2.57
2022-08-29T23:46:30.051Z,2.43
2022-08-29T23:50:32.352Z,2.43
2022-08-29T23:54:35.097Z,2.53
2022-08-29T23:58:36.700Z,2.70
